sensor_id;sensor_type;location;lat;lon;timestamp;pressure;altitude;pressure_sealevel;temperature
4421;BMP180;11824;51.178;13.546;2023-05-10T00:01:18;99795.00;;;12.70
4421;BMP180;11824;51.178;13.546;2023-05-10T00:03:46;99803.00;;;12.60
4421;BMP180;11824;51.178;13.546;2023-05-10T00:06:13;99793.00;;;12.60
4421;BMP180;11824;51.178;13.546;2023-05-10T00:08:40;99788.00;;;12.50
4421;BMP180;11824;51.178;13.546;2023-05-10T00:11:08;99796.00;;;12.50
4421;BMP180;11824;51.178;13.546;2023-05-10T00:13:36;99791.00;;;12.50
4421;BMP180;11824;51.178;13.546;2023-05-10T00:16:03;99782.00;;;12.50
4421;BMP180;11824;51.178;13.546;2023-05-10T00:18:31;99787.00;;;12.40
4421;BMP180;11824;51.178;13.546;2023-05-10T00:20:58;99775.00;;;12.40
4421;BMP180;11824;51.178;13.546;2023-05-10T00:23:26;99774.00;;;12.40
4421;BMP180;11824;51.178;13.546;2023-05-10T00:25:53;99783.00;;;12.40
4421;BMP180;11824;51.178;13.546;2023-05-10T00:28:22;99778.00;;;12.40
4421;BMP180;11824;51.178;13.546;2023-05-10T00:30:50;99784.00;;;12.30
4421;BMP180;11824;51.178;13.546;2023-05-10T00:33:17;99774.00;;;12.30
4421;BMP180;11824;51.178;13.546;2023-05-10T00:35:44;99774.00;;;12.20
4421;BMP180;11824;51.178;13.546;2023-05-10T00:38:12;99766.00;;;12.20
4421;BMP180;11824;51.178;13.546;2023-05-10T00:40:39;99764.00;;;12.20
4421;BMP180;11824;51.178;13.546;2023-05-10T00:43:07;99766.00;;;12.20
4421;BMP180;11824;51.178;13.546;2023-05-10T00:45:36;99763.00;;;12.20
4421;BMP180;11824;51.178;13.546;2023-05-10T00:48:05;99761.00;;;12.20
4421;BMP180;11824;51.178;13.546;2023-05-10T00:50:33;99761.00;;;12.10
4421;BMP180;11824;51.178;13.546;2023-05-10T00:53:01;99762.00;;;12.10
4421;BMP180;11824;51.178;13.546;2023-05-10T00:55:30;99753.00;;;12.10
4421;BMP180;11824;51.178;13.546;2023-05-10T00:57:57;99754.00;;;12.10
4421;BMP180;11824;51.178;13.546;2023-05-10T01:00:24;99760.00;;;12.00
4421;BMP180;11824;51.178;13.546;2023-05-10T01:02:53;99761.00;;;12.00
4421;BMP180;11824;51.178;13.546;2023-05-10T01:05:21;99749.00;;;12.00
4421;BMP180;11824;51.178;13.546;2023-05-10T01:07:48;99763.00;;;12.00
4421;BMP180;11824;51.178;13.546;2023-05-10T01:10:16;99757.00;;;11.90
4421;BMP180;11824;51.178;13.546;2023-05-10T01:12:45;99741.00;;;11.90
4421;BMP180;11824;51.178;13.546;2023-05-10T01:15:13;99738.00;;;11.90
4421;BMP180;11824;51.178;13.546;2023-05-10T01:17:43;99761.00;;;11.90
4421;BMP180;11824;51.178;13.546;2023-05-10T01:20:12;99744.00;;;11.90
4421;BMP180;11824;51.178;13.546;2023-05-10T01:23:00;99738.00;;;11.80
4421;BMP180;11824;51.178;13.546;2023-05-10T01:25:40;99737.00;;;11.80
4421;BMP180;11824;51.178;13.546;2023-05-10T01:31:28;99735.00;;;11.80
4421;BMP180;11824;51.178;13.546;2023-05-10T01:34:01;99730.00;;;11.80
4421;BMP180;11824;51.178;13.546;2023-05-10T01:36:32;99725.00;;;11.80
4421;BMP180;11824;51.178;13.546;2023-05-10T01:39:05;99725.00;;;11.70
4421;BMP180;11824;51.178;13.546;2023-05-10T01:41:42;99722.00;;;11.70
4421;BMP180;11824;51.178;13.546;2023-05-10T01:44:18;99732.00;;;11.70
4421;BMP180;11824;51.178;13.546;2023-05-10T01:46:51;99735.00;;;11.70
4421;BMP180;11824;51.178;13.546;2023-05-10T01:49:23;99724.00;;;11.70
4421;BMP180;11824;51.178;13.546;2023-05-10T01:51:53;99727.00;;;11.70
4421;BMP180;11824;51.178;13.546;2023-05-10T01:54:22;99732.00;;;11.60
4421;BMP180;11824;51.178;13.546;2023-05-10T01:56:55;99730.00;;;11.60
4421;BMP180;11824;51.178;13.546;2023-05-10T01:59:30;99733.00;;;11.60
4421;BMP180;11824;51.178;13.546;2023-05-10T02:01:59;99727.00;;;11.60
4421;BMP180;11824;51.178;13.546;2023-05-10T02:04:29;99740.00;;;11.50
4421;BMP180;11824;51.178;13.546;2023-05-10T02:06:57;99725.00;;;11.50
4421;BMP180;11824;51.178;13.546;2023-05-10T02:09:26;99732.00;;;11.50
4421;BMP180;11824;51.178;13.546;2023-05-10T02:11:55;99730.00;;;11.50
4421;BMP180;11824;51.178;13.546;2023-05-10T02:14:26;99724.00;;;11.50
4421;BMP180;11824;51.178;13.546;2023-05-10T02:16:55;99723.00;;;11.40
4421;BMP180;11824;51.178;13.546;2023-05-10T02:19:24;99724.00;;;11.40
4421;BMP180;11824;51.178;13.546;2023-05-10T02:21:53;99719.00;;;11.40
4421;BMP180;11824;51.178;13.546;2023-05-10T02:24:22;99711.00;;;11.30
4421;BMP180;11824;51.178;13.546;2023-05-10T02:26:52;99717.00;;;11.30
4421;BMP180;11824;51.178;13.546;2023-05-10T02:29:21;99712.00;;;11.30
4421;BMP180;11824;51.178;13.546;2023-05-10T02:31:51;99705.00;;;11.20
4421;BMP180;11824;51.178;13.546;2023-05-10T02:34:20;99702.00;;;11.20
4421;BMP180;11824;51.178;13.546;2023-05-10T02:36:48;99701.00;;;11.20
4421;BMP180;11824;51.178;13.546;2023-05-10T02:39:19;99705.00;;;11.20
4421;BMP180;11824;51.178;13.546;2023-05-10T02:41:49;99707.00;;;11.10
4421;BMP180;11824;51.178;13.546;2023-05-10T02:44:18;99709.00;;;11.10
4421;BMP180;11824;51.178;13.546;2023-05-10T02:46:46;99700.00;;;11.10
4421;BMP180;11824;51.178;13.546;2023-05-10T02:49:14;99703.00;;;11.10
4421;BMP180;11824;51.178;13.546;2023-05-10T02:51:49;99709.00;;;11.10
4421;BMP180;11824;51.178;13.546;2023-05-10T02:54:20;99710.00;;;11.00
4421;BMP180;11824;51.178;13.546;2023-05-10T02:56:54;99716.00;;;11.00
4421;BMP180;11824;51.178;13.546;2023-05-10T02:59:23;99712.00;;;11.00
4421;BMP180;11824;51.178;13.546;2023-05-10T03:01:50;99702.00;;;10.90
4421;BMP180;11824;51.178;13.546;2023-05-10T03:04:18;99709.00;;;10.90
4421;BMP180;11824;51.178;13.546;2023-05-10T03:06:46;99707.00;;;10.90
4421;BMP180;11824;51.178;13.546;2023-05-10T03:09:13;99712.00;;;10.90
4421;BMP180;11824;51.178;13.546;2023-05-10T03:11:57;99709.00;;;10.80
4421;BMP180;11824;51.178;13.546;2023-05-10T03:14:40;99701.00;;;10.80
4421;BMP180;11824;51.178;13.546;2023-05-10T03:17:11;99699.00;;;10.80
4421;BMP180;11824;51.178;13.546;2023-05-10T03:19:46;99693.00;;;10.80
4421;BMP180;11824;51.178;13.546;2023-05-10T03:22:24;99697.00;;;10.80
4421;BMP180;11824;51.178;13.546;2023-05-10T03:24:55;99707.00;;;10.80
4421;BMP180;11824;51.178;13.546;2023-05-10T03:27:25;99703.00;;;10.80
4421;BMP180;11824;51.178;13.546;2023-05-10T03:32:29;99712.00;;;10.80
4421;BMP180;11824;51.178;13.546;2023-05-10T03:34:58;99712.00;;;10.80
4421;BMP180;11824;51.178;13.546;2023-05-10T03:37:25;99708.00;;;10.80
4421;BMP180;11824;51.178;13.546;2023-05-10T03:39:53;99714.00;;;10.70
4421;BMP180;11824;51.178;13.546;2023-05-10T03:42:20;99717.00;;;10.80
4421;BMP180;11824;51.178;13.546;2023-05-10T03:44:48;99718.00;;;10.80
4421;BMP180;11824;51.178;13.546;2023-05-10T03:47:16;99719.00;;;10.70
4421;BMP180;11824;51.178;13.546;2023-05-10T03:49:44;99726.00;;;10.80
4421;BMP180;11824;51.178;13.546;2023-05-10T03:52:11;99727.00;;;10.80
4421;BMP180;11824;51.178;13.546;2023-05-10T03:54:39;99729.00;;;10.80
4421;BMP180;11824;51.178;13.546;2023-05-10T03:57:06;99722.00;;;10.80
4421;BMP180;11824;51.178;13.546;2023-05-10T03:59:33;99711.00;;;10.80
4421;BMP180;11824;51.178;13.546;2023-05-10T04:02:01;99717.00;;;10.80
4421;BMP180;11824;51.178;13.546;2023-05-10T04:04:29;99715.00;;;10.90
4421;BMP180;11824;51.178;13.546;2023-05-10T04:06:56;99715.00;;;11.10
4421;BMP180;11824;51.178;13.546;2023-05-10T04:09:24;99726.00;;;11.40
4421;BMP180;11824;51.178;13.546;2023-05-10T04:11:51;99712.00;;;11.50
4421;BMP180;11824;51.178;13.546;2023-05-10T04:14:19;99717.00;;;11.80
4421;BMP180;11824;51.178;13.546;2023-05-10T04:16:46;99708.00;;;12.00
4421;BMP180;11824;51.178;13.546;2023-05-10T04:19:14;99709.00;;;12.20
4421;BMP180;11824;51.178;13.546;2023-05-10T04:21:42;99707.00;;;12.40
4421;BMP180;11824;51.178;13.546;2023-05-10T04:24:09;99708.00;;;12.70
4421;BMP180;11824;51.178;13.546;2023-05-10T04:26:36;99697.00;;;13.00
4421;BMP180;11824;51.178;13.546;2023-05-10T04:29:04;99708.00;;;13.30
4421;BMP180;11824;51.178;13.546;2023-05-10T04:31:31;99718.00;;;13.50
4421;BMP180;11824;51.178;13.546;2023-05-10T04:33:59;99709.00;;;13.70
4421;BMP180;11824;51.178;13.546;2023-05-10T04:36:27;99708.00;;;14.00
4421;BMP180;11824;51.178;13.546;2023-05-10T04:38:54;99717.00;;;14.40
4421;BMP180;11824;51.178;13.546;2023-05-10T04:41:21;99716.00;;;15.10
4421;BMP180;11824;51.178;13.546;2023-05-10T04:43:49;99717.00;;;15.80
4421;BMP180;11824;51.178;13.546;2023-05-10T04:46:16;99715.00;;;16.60
4421;BMP180;11824;51.178;13.546;2023-05-10T04:48:44;99718.00;;;17.30
4421;BMP180;11824;51.178;13.546;2023-05-10T04:51:11;99725.00;;;18.00
4421;BMP180;11824;51.178;13.546;2023-05-10T04:53:40;99736.00;;;18.60
4421;BMP180;11824;51.178;13.546;2023-05-10T04:56:10;99730.00;;;19.30
4421;BMP180;11824;51.178;13.546;2023-05-10T04:58:38;99738.00;;;19.90
4421;BMP180;11824;51.178;13.546;2023-05-10T05:01:06;99733.00;;;20.50
4421;BMP180;11824;51.178;13.546;2023-05-10T05:03:34;99731.00;;;21.00
4421;BMP180;11824;51.178;13.546;2023-05-10T05:06:01;99728.00;;;21.50
4421;BMP180;11824;51.178;13.546;2023-05-10T05:08:29;99741.00;;;21.90
4421;BMP180;11824;51.178;13.546;2023-05-10T05:10:57;99745.00;;;22.30
4421;BMP180;11824;51.178;13.546;2023-05-10T05:13:24;99746.00;;;22.80
4421;BMP180;11824;51.178;13.546;2023-05-10T05:15:52;99742.00;;;23.20
4421;BMP180;11824;51.178;13.546;2023-05-10T05:18:20;99741.00;;;23.50
4421;BMP180;11824;51.178;13.546;2023-05-10T05:20:47;99747.00;;;23.80
4421;BMP180;11824;51.178;13.546;2023-05-10T05:23:14;99752.00;;;24.00
4421;BMP180;11824;51.178;13.546;2023-05-10T05:25:42;99757.00;;;24.20
4421;BMP180;11824;51.178;13.546;2023-05-10T05:28:10;99750.00;;;24.50
4421;BMP180;11824;51.178;13.546;2023-05-10T05:30:37;99745.00;;;24.80
4421;BMP180;11824;51.178;13.546;2023-05-10T05:33:04;99754.00;;;25.20
4421;BMP180;11824;51.178;13.546;2023-05-10T05:35:32;99744.00;;;25.40
4421;BMP180;11824;51.178;13.546;2023-05-10T05:38:00;99750.00;;;25.60
4421;BMP180;11824;51.178;13.546;2023-05-10T05:40:27;99751.00;;;25.80
4421;BMP180;11824;51.178;13.546;2023-05-10T05:42:54;99751.00;;;25.90
4421;BMP180;11824;51.178;13.546;2023-05-10T05:45:23;99754.00;;;26.00
4421;BMP180;11824;51.178;13.546;2023-05-10T05:47:50;99756.00;;;26.20
4421;BMP180;11824;51.178;13.546;2023-05-10T05:50:18;99749.00;;;26.20
4421;BMP180;11824;51.178;13.546;2023-05-10T05:52:45;99750.00;;;26.40
4421;BMP180;11824;51.178;13.546;2023-05-10T05:55:12;99753.00;;;26.50
4421;BMP180;11824;51.178;13.546;2023-05-10T05:57:40;99759.00;;;26.60
4421;BMP180;11824;51.178;13.546;2023-05-10T06:00:08;99767.00;;;26.70
4421;BMP180;11824;51.178;13.546;2023-05-10T06:02:36;99758.00;;;26.80
4421;BMP180;11824;51.178;13.546;2023-05-10T06:05:04;99758.00;;;27.00
4421;BMP180;11824;51.178;13.546;2023-05-10T06:07:32;99760.00;;;27.10
4421;BMP180;11824;51.178;13.546;2023-05-10T06:09:59;99763.00;;;27.10
4421;BMP180;11824;51.178;13.546;2023-05-10T06:12:27;99762.00;;;27.10
4421;BMP180;11824;51.178;13.546;2023-05-10T06:14:54;99757.00;;;27.10
4421;BMP180;11824;51.178;13.546;2023-05-10T06:17:21;99765.00;;;27.20
4421;BMP180;11824;51.178;13.546;2023-05-10T06:19:49;99759.00;;;27.30
4421;BMP180;11824;51.178;13.546;2023-05-10T06:22:17;99757.00;;;27.40
4421;BMP180;11824;51.178;13.546;2023-05-10T06:24:44;99761.00;;;27.50
4421;BMP180;11824;51.178;13.546;2023-05-10T06:27:11;99762.00;;;27.40
4421;BMP180;11824;51.178;13.546;2023-05-10T06:29:39;99760.00;;;27.40
4421;BMP180;11824;51.178;13.546;2023-05-10T06:32:06;99762.00;;;27.30
4421;BMP180;11824;51.178;13.546;2023-05-10T06:34:33;99766.00;;;27.20
4421;BMP180;11824;51.178;13.546;2023-05-10T06:37:01;99770.00;;;27.10
4421;BMP180;11824;51.178;13.546;2023-05-10T06:39:30;99768.00;;;26.90
4421;BMP180;11824;51.178;13.546;2023-05-10T06:41:57;99765.00;;;26.60
4421;BMP180;11824;51.178;13.546;2023-05-10T06:44:24;99759.00;;;26.30
4421;BMP180;11824;51.178;13.546;2023-05-10T06:46:52;99763.00;;;25.90
4421;BMP180;11824;51.178;13.546;2023-05-10T06:49:20;99758.00;;;25.60
4421;BMP180;11824;51.178;13.546;2023-05-10T06:51:47;99763.00;;;25.30
4421;BMP180;11824;51.178;13.546;2023-05-10T06:54:16;99755.00;;;24.90
4421;BMP180;11824;51.178;13.546;2023-05-10T06:56:44;99761.00;;;24.50
4421;BMP180;11824;51.178;13.546;2023-05-10T06:59:11;99759.00;;;24.10
4421;BMP180;11824;51.178;13.546;2023-05-10T07:01:40;99763.00;;;23.70
4421;BMP180;11824;51.178;13.546;2023-05-10T07:04:07;99753.00;;;23.10
4421;BMP180;11824;51.178;13.546;2023-05-10T07:06:35;99758.00;;;22.60
4421;BMP180;11824;51.178;13.546;2023-05-10T07:09:02;99757.00;;;22.00
4421;BMP180;11824;51.178;13.546;2023-05-10T07:11:30;99756.00;;;21.50
4421;BMP180;11824;51.178;13.546;2023-05-10T07:13:58;99756.00;;;21.10
4421;BMP180;11824;51.178;13.546;2023-05-10T07:16:25;99756.00;;;20.70
4421;BMP180;11824;51.178;13.546;2023-05-10T07:18:53;99747.00;;;20.30
4421;BMP180;11824;51.178;13.546;2023-05-10T07:21:20;99756.00;;;20.00
4421;BMP180;11824;51.178;13.546;2023-05-10T07:23:50;99746.00;;;19.70
4421;BMP180;11824;51.178;13.546;2023-05-10T07:26:18;99741.00;;;19.50
4421;BMP180;11824;51.178;13.546;2023-05-10T07:28:46;99745.00;;;19.30
4421;BMP180;11824;51.178;13.546;2023-05-10T07:31:15;99745.00;;;19.20
4421;BMP180;11824;51.178;13.546;2023-05-10T07:33:42;99741.00;;;19.00
4421;BMP180;11824;51.178;13.546;2023-05-10T07:36:09;99746.00;;;19.00
4421;BMP180;11824;51.178;13.546;2023-05-10T07:38:37;99752.00;;;18.90
4421;BMP180;11824;51.178;13.546;2023-05-10T07:41:07;99751.00;;;18.80
4421;BMP180;11824;51.178;13.546;2023-05-10T07:43:34;99750.00;;;18.80
4421;BMP180;11824;51.178;13.546;2023-05-10T07:46:02;99746.00;;;18.70
4421;BMP180;11824;51.178;13.546;2023-05-10T07:48:30;99745.00;;;18.70
4421;BMP180;11824;51.178;13.546;2023-05-10T07:50:57;99749.00;;;18.70
4421;BMP180;11824;51.178;13.546;2023-05-10T07:53:25;99751.00;;;18.70
4421;BMP180;11824;51.178;13.546;2023-05-10T07:55:57;99745.00;;;18.70
4421;BMP180;11824;51.178;13.546;2023-05-10T07:58:25;99747.00;;;18.70
4421;BMP180;11824;51.178;13.546;2023-05-10T08:00:53;99750.00;;;18.70
4421;BMP180;11824;51.178;13.546;2023-05-10T08:03:21;99743.00;;;18.80
4421;BMP180;11824;51.178;13.546;2023-05-10T08:05:49;99749.00;;;18.80
4421;BMP180;11824;51.178;13.546;2023-05-10T08:08:17;99743.00;;;18.80
4421;BMP180;11824;51.178;13.546;2023-05-10T08:10:44;99743.00;;;18.80
4421;BMP180;11824;51.178;13.546;2023-05-10T08:13:12;99739.00;;;18.80
4421;BMP180;11824;51.178;13.546;2023-05-10T08:15:39;99742.00;;;18.80
4421;BMP180;11824;51.178;13.546;2023-05-10T08:18:07;99745.00;;;18.80
4421;BMP180;11824;51.178;13.546;2023-05-10T08:20:35;99750.00;;;18.80
4421;BMP180;11824;51.178;13.546;2023-05-10T08:23:02;99744.00;;;18.90
4421;BMP180;11824;51.178;13.546;2023-05-10T08:25:31;99746.00;;;18.90
4421;BMP180;11824;51.178;13.546;2023-05-10T08:27:58;99751.00;;;18.90
4421;BMP180;11824;51.178;13.546;2023-05-10T08:30:26;99755.00;;;18.90
4421;BMP180;11824;51.178;13.546;2023-05-10T08:32:53;99760.00;;;19.00
4421;BMP180;11824;51.178;13.546;2023-05-10T08:35:20;99754.00;;;19.00
4421;BMP180;11824;51.178;13.546;2023-05-10T08:37:50;99764.00;;;19.10
4421;BMP180;11824;51.178;13.546;2023-05-10T08:40:19;99752.00;;;19.10
4421;BMP180;11824;51.178;13.546;2023-05-10T08:42:51;99760.00;;;19.20
4421;BMP180;11824;51.178;13.546;2023-05-10T08:45:20;99756.00;;;19.20
4421;BMP180;11824;51.178;13.546;2023-05-10T08:47:50;99757.00;;;19.20
4421;BMP180;11824;51.178;13.546;2023-05-10T08:50:20;99761.00;;;19.30
4421;BMP180;11824;51.178;13.546;2023-05-10T08:52:50;99759.00;;;19.30
4421;BMP180;11824;51.178;13.546;2023-05-10T08:55:19;99758.00;;;19.30
4421;BMP180;11824;51.178;13.546;2023-05-10T08:57:47;99775.00;;;19.40
4421;BMP180;11824;51.178;13.546;2023-05-10T09:00:15;99773.00;;;19.40
4421;BMP180;11824;51.178;13.546;2023-05-10T09:02:44;99776.00;;;19.50
4421;BMP180;11824;51.178;13.546;2023-05-10T09:05:12;99785.00;;;19.50
4421;BMP180;11824;51.178;13.546;2023-05-10T09:07:43;99779.00;;;19.60
4421;BMP180;11824;51.178;13.546;2023-05-10T09:10:14;99786.00;;;19.60
4421;BMP180;11824;51.178;13.546;2023-05-10T09:12:59;99780.00;;;19.70
4421;BMP180;11824;51.178;13.546;2023-05-10T09:15:35;99789.00;;;19.70
4421;BMP180;11824;51.178;13.546;2023-05-10T09:18:36;99784.00;;;19.80
4421;BMP180;11824;51.178;13.546;2023-05-10T09:21:36;99792.00;;;19.80
4421;BMP180;11824;51.178;13.546;2023-05-10T09:24:48;99792.00;;;19.90
4421;BMP180;11824;51.178;13.546;2023-05-10T09:27:52;99796.00;;;19.90
4421;BMP180;11824;51.178;13.546;2023-05-10T10:08:20;99787.00;;;20.80
4421;BMP180;11824;51.178;13.546;2023-05-10T10:10:48;99789.00;;;20.90
4421;BMP180;11824;51.178;13.546;2023-05-10T10:13:19;99790.00;;;20.90
4421;BMP180;11824;51.178;13.546;2023-05-10T10:15:46;99791.00;;;21.00
4421;BMP180;11824;51.178;13.546;2023-05-10T10:18:18;99791.00;;;21.10
4421;BMP180;11824;51.178;13.546;2023-05-10T10:20:50;99791.00;;;21.20
4421;BMP180;11824;51.178;13.546;2023-05-10T10:23:20;99786.00;;;21.20
4421;BMP180;11824;51.178;13.546;2023-05-10T10:25:47;99785.00;;;21.20
4421;BMP180;11824;51.178;13.546;2023-05-10T10:28:23;99785.00;;;21.30
4421;BMP180;11824;51.178;13.546;2023-05-10T10:30:55;99787.00;;;21.40
4421;BMP180;11824;51.178;13.546;2023-05-10T10:33:39;99787.00;;;21.50
4421;BMP180;11824;51.178;13.546;2023-05-10T10:36:07;99787.00;;;21.50
4421;BMP180;11824;51.178;13.546;2023-05-10T10:38:55;99782.00;;;21.50
4421;BMP180;11824;51.178;13.546;2023-05-10T10:41:32;99788.00;;;21.60
4421;BMP180;11824;51.178;13.546;2023-05-10T10:44:34;99787.00;;;21.70
4421;BMP180;11824;51.178;13.546;2023-05-10T10:47:07;99784.00;;;21.80
4421;BMP180;11824;51.178;13.546;2023-05-10T10:49:42;99798.00;;;21.80
4421;BMP180;11824;51.178;13.546;2023-05-10T10:52:22;99789.00;;;21.90
4421;BMP180;11824;51.178;13.546;2023-05-10T10:54:57;99796.00;;;22.00
4421;BMP180;11824;51.178;13.546;2023-05-10T10:57:25;99787.00;;;22.10
4421;BMP180;11824;51.178;13.546;2023-05-10T11:00:22;99794.00;;;22.20
4421;BMP180;11824;51.178;13.546;2023-05-10T11:02:51;99790.00;;;22.30
4421;BMP180;11824;51.178;13.546;2023-05-10T11:05:33;99785.00;;;22.40
4421;BMP180;11824;51.178;13.546;2023-05-10T11:08:06;99791.00;;;22.40
4421;BMP180;11824;51.178;13.546;2023-05-10T11:10:35;99788.00;;;22.50
4421;BMP180;11824;51.178;13.546;2023-05-10T11:13:04;99788.00;;;22.50
4421;BMP180;11824;51.178;13.546;2023-05-10T11:15:33;99785.00;;;22.60
4421;BMP180;11824;51.178;13.546;2023-05-10T11:18:17;99794.00;;;22.70
4421;BMP180;11824;51.178;13.546;2023-05-10T11:20:50;99787.00;;;22.80
4421;BMP180;11824;51.178;13.546;2023-05-10T11:23:18;99788.00;;;22.90
4421;BMP180;11824;51.178;13.546;2023-05-10T11:25:48;99788.00;;;23.00
4421;BMP180;11824;51.178;13.546;2023-05-10T11:28:17;99786.00;;;23.10
4421;BMP180;11824;51.178;13.546;2023-05-10T11:30:46;99786.00;;;23.20
4421;BMP180;11824;51.178;13.546;2023-05-10T11:33:17;99799.00;;;23.30
4421;BMP180;11824;51.178;13.546;2023-05-10T11:35:47;99796.00;;;23.30
4421;BMP180;11824;51.178;13.546;2023-05-10T11:38:15;99802.00;;;23.30
4421;BMP180;11824;51.178;13.546;2023-05-10T11:40:42;99798.00;;;23.30
4421;BMP180;11824;51.178;13.546;2023-05-10T11:43:11;99804.00;;;23.30
4421;BMP180;11824;51.178;13.546;2023-05-10T11:45:39;99802.00;;;23.40
4421;BMP180;11824;51.178;13.546;2023-05-10T11:48:07;99799.00;;;23.40
4421;BMP180;11824;51.178;13.546;2023-05-10T11:50:34;99799.00;;;23.50
4421;BMP180;11824;51.178;13.546;2023-05-10T11:53:02;99802.00;;;23.50
4421;BMP180;11824;51.178;13.546;2023-05-10T11:55:30;99807.00;;;23.60
4421;BMP180;11824;51.178;13.546;2023-05-10T11:58:02;99804.00;;;23.60
4421;BMP180;11824;51.178;13.546;2023-05-10T12:00:32;99818.00;;;23.70
4421;BMP180;11824;51.178;13.546;2023-05-10T12:03:00;99810.00;;;23.80
4421;BMP180;11824;51.178;13.546;2023-05-10T12:05:32;99818.00;;;23.90
4421;BMP180;11824;51.178;13.546;2023-05-10T12:08:13;99821.00;;;24.00
4421;BMP180;11824;51.178;13.546;2023-05-10T12:10:42;99817.00;;;24.10
4421;BMP180;11824;51.178;13.546;2023-05-10T12:13:12;99826.00;;;24.20
4421;BMP180;11824;51.178;13.546;2023-05-10T12:15:43;99833.00;;;24.20
4421;BMP180;11824;51.178;13.546;2023-05-10T12:18:11;99831.00;;;24.30
4421;BMP180;11824;51.178;13.546;2023-05-10T12:20:40;99828.00;;;24.30
4421;BMP180;11824;51.178;13.546;2023-05-10T12:23:09;99839.00;;;24.30
4421;BMP180;11824;51.178;13.546;2023-05-10T12:25:38;99846.00;;;24.30
4421;BMP180;11824;51.178;13.546;2023-05-10T12:28:07;99844.00;;;24.30
4421;BMP180;11824;51.178;13.546;2023-05-10T12:30:36;99850.00;;;24.30
4421;BMP180;11824;51.178;13.546;2023-05-10T12:33:09;99838.00;;;24.30
4421;BMP180;11824;51.178;13.546;2023-05-10T12:35:46;99849.00;;;24.30
4421;BMP180;11824;51.178;13.546;2023-05-10T12:38:29;99855.00;;;24.20
4421;BMP180;11824;51.178;13.546;2023-05-10T12:40:58;99853.00;;;24.10
4421;BMP180;11824;51.178;13.546;2023-05-10T12:43:26;99852.00;;;23.90
4421;BMP180;11824;51.178;13.546;2023-05-10T12:45:54;99843.00;;;23.80
4421;BMP180;11824;51.178;13.546;2023-05-10T12:48:23;99858.00;;;23.70
4421;BMP180;11824;51.178;13.546;2023-05-10T12:50:51;99856.00;;;23.50
4421;BMP180;11824;51.178;13.546;2023-05-10T12:53:20;99867.00;;;23.40
4421;BMP180;11824;51.178;13.546;2023-05-10T12:55:49;99873.00;;;23.30
4421;BMP180;11824;51.178;13.546;2023-05-10T12:58:17;99874.00;;;23.30
4421;BMP180;11824;51.178;13.546;2023-05-10T13:01:01;99868.00;;;23.20
4421;BMP180;11824;51.178;13.546;2023-05-10T13:03:31;99878.00;;;23.10
4421;BMP180;11824;51.178;13.546;2023-05-10T13:05:58;99874.00;;;23.00
4421;BMP180;11824;51.178;13.546;2023-05-10T13:08:26;99873.00;;;23.00
4421;BMP180;11824;51.178;13.546;2023-05-10T13:10:56;99881.00;;;22.90
4421;BMP180;11824;51.178;13.546;2023-05-10T13:13:24;99874.00;;;22.90
4421;BMP180;11824;51.178;13.546;2023-05-10T13:15:52;99880.00;;;22.90
4421;BMP180;11824;51.178;13.546;2023-05-10T13:18:20;99882.00;;;23.00
4421;BMP180;11824;51.178;13.546;2023-05-10T13:20:50;99876.00;;;23.00
4421;BMP180;11824;51.178;13.546;2023-05-10T13:23:18;99875.00;;;23.00
4421;BMP180;11824;51.178;13.546;2023-05-10T13:25:46;99889.00;;;23.00
4421;BMP180;11824;51.178;13.546;2023-05-10T13:28:13;99880.00;;;23.10
4421;BMP180;11824;51.178;13.546;2023-05-10T13:30:41;99877.00;;;23.10
4421;BMP180;11824;51.178;13.546;2023-05-10T13:33:09;99885.00;;;23.10
4421;BMP180;11824;51.178;13.546;2023-05-10T13:35:37;99888.00;;;23.10
4421;BMP180;11824;51.178;13.546;2023-05-10T13:38:06;99882.00;;;23.10
4421;BMP180;11824;51.178;13.546;2023-05-10T13:40:35;99876.00;;;23.10
4421;BMP180;11824;51.178;13.546;2023-05-10T13:43:03;99878.00;;;23.10
4421;BMP180;11824;51.178;13.546;2023-05-10T13:45:30;99880.00;;;23.00
4421;BMP180;11824;51.178;13.546;2023-05-10T13:47:58;99877.00;;;22.90
4421;BMP180;11824;51.178;13.546;2023-05-10T13:50:26;99884.00;;;22.80
4421;BMP180;11824;51.178;13.546;2023-05-10T13:52:54;99877.00;;;22.70
4421;BMP180;11824;51.178;13.546;2023-05-10T13:55:23;99872.00;;;22.60
4421;BMP180;11824;51.178;13.546;2023-05-10T13:57:50;99880.00;;;22.60
4421;BMP180;11824;51.178;13.546;2023-05-10T14:00:18;99878.00;;;22.50
4421;BMP180;11824;51.178;13.546;2023-05-10T14:02:46;99882.00;;;22.50
4421;BMP180;11824;51.178;13.546;2023-05-10T14:05:13;99887.00;;;22.40
4421;BMP180;11824;51.178;13.546;2023-05-10T14:07:41;99879.00;;;22.40
4421;BMP180;11824;51.178;13.546;2023-05-10T14:10:09;99888.00;;;22.30
4421;BMP180;11824;51.178;13.546;2023-05-10T14:12:38;99880.00;;;22.30
4421;BMP180;11824;51.178;13.546;2023-05-10T14:15:06;99882.00;;;22.20
4421;BMP180;11824;51.178;13.546;2023-05-10T14:17:34;99879.00;;;22.20
4421;BMP180;11824;51.178;13.546;2023-05-10T14:20:02;99879.00;;;22.10
4421;BMP180;11824;51.178;13.546;2023-05-10T14:22:30;99878.00;;;22.10
4421;BMP180;11824;51.178;13.546;2023-05-10T14:24:58;99877.00;;;22.00
4421;BMP180;11824;51.178;13.546;2023-05-10T14:27:26;99871.00;;;22.00
4421;BMP180;11824;51.178;13.546;2023-05-10T14:29:55;99874.00;;;21.90
4421;BMP180;11824;51.178;13.546;2023-05-10T14:32:23;99864.00;;;21.90
4421;BMP180;11824;51.178;13.546;2023-05-10T14:34:51;99863.00;;;21.80
4421;BMP180;11824;51.178;13.546;2023-05-10T14:37:19;99871.00;;;21.70
4421;BMP180;11824;51.178;13.546;2023-05-10T14:39:47;99869.00;;;21.70
4421;BMP180;11824;51.178;13.546;2023-05-10T14:42:15;99863.00;;;21.70
4421;BMP180;11824;51.178;13.546;2023-05-10T14:44:43;99875.00;;;21.70
4421;BMP180;11824;51.178;13.546;2023-05-10T14:47:12;99873.00;;;21.60
4421;BMP180;11824;51.178;13.546;2023-05-10T14:49:39;99876.00;;;21.60
4421;BMP180;11824;51.178;13.546;2023-05-10T14:52:07;99870.00;;;21.60
4421;BMP180;11824;51.178;13.546;2023-05-10T14:54:35;99874.00;;;21.60
4421;BMP180;11824;51.178;13.546;2023-05-10T14:57:02;99879.00;;;21.60
4421;BMP180;11824;51.178;13.546;2023-05-10T14:59:29;99873.00;;;21.60
4421;BMP180;11824;51.178;13.546;2023-05-10T15:01:57;99875.00;;;21.60
4421;BMP180;11824;51.178;13.546;2023-05-10T15:04:26;99877.00;;;21.60
4421;BMP180;11824;51.178;13.546;2023-05-10T15:06:55;99877.00;;;21.60